world map with WIL marked

WIL - Airport

This information may not be accurate or current and is not valid for navigation or flight planning. No warranty of fitness for any purpose is made or implied.

flag of Kenya

Donate via PayPal

Additional information is available on the NEW Great Circle Mapper

Location
City:  Nairobi, Kenya
Name:Wilson
ICAO / IATA:HKNW / WIL

Details
Type:Airport (Aerodrome, Airfield)
Use:Public/Civil
Latitude:1°19'18"S (-1.321718)
Longitude:36°48'53"E (36.814833)
Datum:WGS 1984
Elevation:5546 ft (1690 m)
Runways:2
Longest:5052 × 76 ft (1540 × 23 m)

Time
Timezone:UTC+3
Local Time:

Weather
METAR:HKNW  211100Z 14008KT 9999 SCT027 25/09 Q1021
TAF:HKNW  (expired)

Related Locations
Nearby:
Farthest:NHV: 11707 mi / 18840 km
Nuku Hiva, Marquesas Islands, PF

Find:

   beyond  
but within

Other Information
Maps:
Links:
Sources:

  


 


Great Circle Mapper   Great Circle Mapper
Great Circle Mapper FAQ   Great Circle Mapper FAQ
  Karl's Home Page
KLSē   KLSē Home
   GC on Facebook
Airlines of the World   Airlines of the World
Donate via PayPal


Copyright © 2004-2014, Karl L. Swartz. All rights reserved.
All trademarks mentioned herein belong to their respective owners.

Please see credits for attribution and copyright information.

Karl Swartz <karl@kls2.com>
  Powered by FreeBSD
Valid HTML 4.01!
Labeled with ICRA
hCard Microformat
Geo Microformat